Time;durP1;ratioP1;P1;durP2;ratioP2;P2;SDS_P1;SDS_P2;PMS_P1;PMS_P2;Temp;Humidity;BMP_temperature;BMP_pressure;BME280_temperature;BME280_humidity;BME280_pressure;Samples;Min_cycle;Max_cycle;Signal;HPM_P1;HPM_P2
2023/07/08 09:15:49;;;;;;;;;4.00;4.00;;;;;27.78;42.96;101310.38;989119;23;46968;-96
2023/07/08 09:18:27;;;;;;;;;7.00;5.00;;;;;27.88;42.54;101316.47;4831762;29;46128;-96
2023/07/08 09:20:55;;;;;;;;;3.00;3.00;;;;;27.98;42.68;101316.34;4832691;29;45595;-96
2023/07/08 09:23:32;;;;;;;;;5.67;4.00;;;;;28.04;42.54;101320.25;4848881;29;44775;-96
2023/07/08 09:26:21;;;;;;;;;4.00;4.00;;;;;28.14;42.17;101321.00;4850026;29;45188;-96
2023/07/08 09:28:46;;;;;;;;;6.00;6.00;;;;;28.22;42.47;101314.84;4829068;29;47366;-96
2023/07/08 09:31:36;;;;;;;;;5.67;5.67;;;;;28.34;42.08;101310.09;4829577;29;45530;-96
2023/07/08 09:34:18;;;;;;;;;5.00;5.00;;;;;28.44;41.69;101312.63;4829957;29;45450;-96
2023/07/08 09:36:46;;;;;;;;;5.00;5.00;;;;;28.54;41.41;101305.34;4824887;29;45119;-96
2023/07/08 09:39:15;;;;;;;;;5.67;4.67;;;;;28.64;41.51;101306.03;4831485;29;47443;-96
2023/07/08 09:41:42;;;;;;;;;7.33;5.00;;;;;28.73;40.83;101292.72;4831446;29;45202;-96
2023/07/08 09:44:29;;;;;;;;;4.67;3.33;;;;;28.88;41.04;101304.47;4831038;29;45323;-96
2023/07/08 09:46:57;;;;;;;;;3.00;3.00;;;;;29.01;39.68;101303.19;4830515;29;45506;-95
2023/07/08 09:49:27;;;;;;;;;3.00;3.00;;;;;29.10;39.61;101307.53;4830324;29;47174;-96
2023/07/08 09:51:53;;;;;;;;;5.00;4.00;;;;;29.23;40.12;101311.56;4847147;29;45376;-96
2023/07/08 09:54:23;;;;;;;;;3.00;3.00;;;;;29.32;39.85;101313.28;4835130;29;45410;-96
2023/07/08 09:57:09;;;;;;;;;2.00;2.00;;;;;29.41;39.31;101304.25;4836348;29;45475;-96
2023/07/08 09:59:42;;;;;;;;;2.33;2.00;;;;;29.50;39.64;101305.13;4825706;29;45641;-96
2023/07/08 10:02:31;;;;;;;;;3.67;3.33;;;;;29.64;39.17;101298.25;4831677;29;45493;-96
2023/07/08 10:05:02;;;;;;;;;3.00;3.00;;;;;29.70;38.74;101292.22;4820298;29;44860;-96
2023/07/08 10:07:31;;;;;;;;;4.33;4.33;;;;;29.81;39.43;101295.56;4831554;29;45487;-96
2023/07/08 10:10:01;;;;;;;;;4.67;4.33;;;;;29.95;39.14;101292.16;4831740;29;47361;-96
2023/07/08 10:12:27;;;;;;;;;4.33;3.67;;;;;30.10;39.33;101288.81;4831384;29;46252;-96
2023/07/08 10:15:03;;;;;;;;;4.00;4.00;;;;;30.30;38.23;101297.31;4850772;29;45168;-96
2023/07/08 10:23:00;;;;;;;;;3.33;3.00;;;;;30.65;37.40;101288.94;4880601;29;45399;-88
2023/07/08 10:25:36;;;;;;;;;4.00;3.33;;;;;30.75;37.28;101286.06;4880096;29;45864;-88
2023/07/08 10:28:17;;;;;;;;;4.33;3.33;;;;;30.88;37.27;101286.34;4885483;29;45502;-86
2023/07/08 10:30:59;;;;;;;;;4.00;4.00;;;;;31.00;37.00;101286.75;4872303;29;45534;-88
2023/07/08 10:33:49;;;;;;;;;4.00;4.00;;;;;31.15;36.60;101288.69;4870042;29;45735;-88
2023/07/08 10:36:26;;;;;;;;;4.67;4.00;;;;;31.28;36.70;101290.81;4876625;29;45528;-88
2023/07/08 10:39:13;;;;;;;;;7.67;5.33;;;;;31.39;36.04;101306.53;4872421;29;45577;-89
2023/07/08 10:41:50;;;;;;;;;5.00;5.00;;;;;31.50;35.78;101307.09;4865768;29;45465;-88
2023/07/08 10:44:59;;;;;;;;;5.00;5.00;;;;;31.56;35.96;101293.75;4875829;29;45429;-88
2023/07/08 10:47:33;;;;;;;;;4.67;4.67;;;;;31.71;36.13;101295.66;4873744;29;45542;-88
2023/07/08 10:49:59;;;;;;;;;4.00;4.00;;;;;31.85;35.80;101291.34;4877191;29;45720;-88
2023/07/08 10:52:35;;;;;;;;;5.33;4.00;;;;;32.01;35.90;101298.41;4877540;29;47347;-88
2023/07/08 10:55:31;;;;;;;;;5.00;5.00;;;;;32.20;36.03;101296.19;4878336;29;45798;-88
2023/07/08 10:58:23;;;;;;;;;5.00;5.00;;;;;32.42;35.71;101288.19;4879466;29;45542;-88
2023/07/08 11:00:57;;;;;;;;;6.33;3.67;;;;;32.65;35.61;101293.47;4878650;29;45318;-88
2023/07/08 11:03:44;;;;;;;;;6.33;4.33;;;;;32.85;34.82;101298.25;4884741;29;46332;-88
2023/07/08 11:06:24;;;;;;;;;5.67;4.33;;;;;32.97;34.67;101298.59;4885088;29;45502;-88
2023/07/08 11:09:01;;;;;;;;;8.33;6.00;;;;;33.02;34.06;101307.81;4889085;29;45505;-94
2023/07/08 11:11:33;;;;;;;;;5.00;5.00;;;;;33.11;34.26;101297.72;4885065;29;46158;-94
2023/07/08 11:14:09;;;;;;;;;5.00;5.00;;;;;33.22;34.11;101298.25;4883677;29;46903;-93
2023/07/08 11:16:45;;;;;;;;;5.00;5.00;;;;;33.29;33.42;101289.19;4883867;29;45490;-90
2023/07/08 11:19:22;;;;;;;;;7.67;6.67;;;;;33.36;33.51;101288.41;4868945;29;45576;-95
2023/07/08 11:21:50;;;;;;;;;6.00;6.00;;;;;33.49;33.29;101285.00;4881225;29;45407;-91
2023/07/08 11:24:39;;;;;;;;;6.00;6.00;;;;;33.63;33.43;101277.88;4893632;29;47927;-88
2023/07/08 11:27:24;;;;;;;;;5.33;5.33;;;;;33.78;33.05;101272.38;4878645;29;45505;-88
2023/07/08 11:29:56;;;;;;;;;5.00;5.00;;;;;33.89;32.44;101277.22;4878364;29;45411;-88
2023/07/08 11:32:26;;;;;;;;;5.00;5.00;;;;;33.97;33.14;101277.03;4859414;29;45376;-88
2023/07/08 11:34:52;;;;;;;;;4.33;4.33;;;;;34.07;32.97;101278.59;4872281;29;45553;-88
2023/07/08 11:37:21;;;;;;;;;5.33;5.33;;;;;34.22;32.75;101276.59;4876293;29;45548;-89
2023/07/08 11:39:53;;;;;;;;;8.00;6.33;;;;;34.38;32.91;101285.38;4871689;29;45513;-87
2023/07/08 11:42:33;;;;;;;;;4.67;4.67;;;;;34.56;32.81;101275.91;4885198;29;45655;-88
2023/07/08 11:44:59;;;;;;;;;5.67;5.67;;;;;34.71;31.81;101265.75;4864346;29;46636;-88
2023/07/08 11:47:45;;;;;;;;;5.75;5.75;;;;;34.85;31.91;101258.53;4860947;29;45581;-88
2023/07/08 11:50:29;;;;;;;;;6.33;6.33;;;;;34.98;32.03;101257.72;4859303;29;45574;-88
2023/07/08 11:52:58;;;;;;;;;6.33;6.00;;;;;35.09;31.15;101250.03;4859347;29;45635;-88
2023/07/08 11:55:38;;;;;;;;;6.00;6.00;;;;;35.17;31.34;101255.28;4877699;29;48194;-88
2023/07/08 11:58:19;;;;;;;;;6.00;5.00;;;;;35.21;31.59;101261.91;4877059;29;45635;-89
2023/07/08 12:00:58;;;;;;;;;5.00;4.67;;;;;35.30;31.26;101251.72;4878171;29;45392;-89
2023/07/08 12:03:34;;;;;;;;;6.67;5.67;;;;;35.43;31.23;101248.19;4877396;29;45637;-89
2023/07/08 12:06:06;;;;;;;;;7.50;6.00;;;;;35.57;31.46;101235.47;4878606;29;45534;-89
2023/07/08 12:08:38;;;;;;;;;6.33;5.33;;;;;35.65;30.35;101242.56;4876737;29;45564;-89
2023/07/08 12:11:03;;;;;;;;;5.00;5.00;;;;;35.67;30.52;101238.59;4874837;29;45662;-89
2023/07/08 12:13:30;;;;;;;;;5.50;4.75;;;;;35.73;30.16;101241.50;4872469;29;45336;-89
2023/07/08 12:15:55;;;;;;;;;5.25;5.25;;;;;35.81;30.41;101243.97;4879949;29;47268;-86
2023/07/08 12:18:25;;;;;;;;;6.00;4.33;;;;;35.90;30.01;101236.47;4882224;29;45606;-86
2023/07/08 12:20:57;;;;;;;;;3.67;3.67;;;;;35.98;30.06;101225.41;4865716;29;45363;-86
2023/07/08 12:23:25;;;;;;;;;4.75;4.75;;;;;36.09;30.20;101230.16;4889762;29;45913;-86
2023/07/08 12:25:51;;;;;;;;;5.75;5.00;;;;;36.20;29.59;101239.53;4872280;29;45811;-87
2023/07/08 12:28:17;;;;;;;;;4.67;4.67;;;;;36.20;29.38;101235.97;4873933;29;45499;-88
2023/07/08 12:30:45;;;;;;;;;4.67;4.00;;;;;36.23;28.83;101230.13;4871124;29;46030;-88
2023/07/08 12:33:17;;;;;;;;;5.33;5.00;;;;;36.31;29.20;101226.31;4873129;29;45648;-89
2023/07/08 12:35:45;;;;;;;;;5.33;5.00;;;;;36.36;29.34;101232.75;4881296;29;45390;-88
2023/07/08 12:38:31;;;;;;;;;6.67;6.00;;;;;36.43;29.32;101218.34;4879527;29;45607;-88
2023/07/08 12:40:59;;;;;;;;;4.00;4.00;;;;;36.51;29.06;101221.63;4881322;29;45284;-88
2023/07/08 12:43:25;;;;;;;;;4.00;4.00;;;;;36.51;28.89;101229.75;4880698;29;45491;-88
2023/07/08 12:45:50;;;;;;;;;5.33;5.33;;;;;36.51;28.44;101228.94;4862818;29;45366;-88
2023/07/08 12:48:16;;;;;;;;;3.33;3.33;;;;;36.52;28.29;101230.59;4869107;29;45354;-89
2023/07/08 12:50:41;;;;;;;;;4.00;3.00;;;;;36.50;28.14;101233.53;4881740;29;45568;-88
2023/07/08 12:53:09;;;;;;;;;4.33;3.67;;;;;36.52;28.09;101233.31;4886961;29;45538;-88
2023/07/08 12:55:45;;;;;;;;;4.00;4.00;;;;;36.54;28.24;101227.66;4882646;29;46452;-89
2023/07/08 12:58:25;;;;;;;;;3.00;2.67;;;;;36.56;28.68;101226.38;4880221;29;45451;-88
2023/07/08 13:00:50;;;;;;;;;4.00;4.00;;;;;36.65;28.05;101216.16;4880167;29;45712;-87
2023/07/08 13:03:21;;;;;;;;;4.33;4.33;;;;;36.72;28.23;101219.66;4879626;29;45618;-87
2023/07/08 13:05:49;;;;;;;;;5.33;4.00;;;;;36.80;27.79;101213.16;4878662;29;47737;-89
2023/07/08 13:08:18;;;;;;;;;3.50;2.50;;;;;36.82;27.13;101205.59;4880165;29;45326;-89
2023/07/08 13:10:45;;;;;;;;;3.33;2.67;;;;;36.82;27.71;101207.47;4880398;29;45331;-88
2023/07/08 13:13:24;;;;;;;;;5.00;5.00;;;;;36.84;27.10;101205.41;4878883;29;45592;-88
2023/07/08 13:15:50;;;;;;;;;3.50;3.50;;;;;36.87;27.52;101202.22;4868797;29;46703;-89
2023/07/08 13:18:19;;;;;;;;;4.00;3.50;;;;;36.96;27.50;101205.50;4881347;29;45487;-88
2023/07/08 13:20:51;;;;;;;;;5.00;5.00;;;;;36.99;27.35;101207.78;4882098;29;45417;-88
2023/07/08 13:23:19;;;;;;;;;3.33;3.33;;;;;36.96;26.82;101222.59;4882002;29;45432;-88
2023/07/08 13:25:48;;;;;;;;;5.00;5.00;;;;;36.94;27.30;101222.00;4892603;29;47298;-89
2023/07/08 13:28:25;;;;;;;;;3.25;2.50;;;;;36.94;27.12;101221.16;4865545;29;45364;-88
2023/07/08 13:30:55;;;;;;;;;4.25;4.25;;;;;36.97;27.14;101226.97;4877426;29;45570;-88
2023/07/08 13:33:21;;;;;;;;;2.67;2.67;;;;;36.95;26.75;101222.81;4880704;29;45513;-88
2023/07/08 13:35:49;;;;;;;;;5.25;5.25;;;;;36.95;26.75;101217.41;4879485;29;47986;-89
2023/07/08 13:38:17;;;;;;;;;4.00;4.00;;;;;36.90;26.71;101213.50;4893532;29;45394;-89
2023/07/08 13:40:49;;;;;;;;;4.33;4.00;;;;;36.88;26.86;101217.47;4881697;29;45611;-88
2023/07/08 13:43:15;;;;;;;;;3.00;3.00;;;;;36.78;26.48;101215.22;4881578;29;45587;-88
2023/07/08 13:45:47;;;;;;;;;8.00;5.00;;;;;36.60;26.22;101213.25;4882656;29;46522;-88
2023/07/08 13:48:43;;;;;;;;;3.00;3.00;;;;;36.46;26.61;101213.31;4881728;29;45440;-88
2023/07/08 13:51:29;;;;;;;;;4.67;4.00;;;;;36.45;26.58;101206.25;4863864;29;45296;-89
2023/07/08 13:54:00;;;;;;;;;6.00;5.33;;;;;36.42;26.44;101209.38;4862528;29;45619;-89
2023/07/08 13:56:30;;;;;;;;;4.00;3.75;;;;;36.37;26.27;101215.47;4872235;29;48023;-88
2023/07/08 13:59:10;;;;;;;;;5.67;5.00;;;;;36.23;26.92;101216.59;4879533;29;45497;-88
2023/07/08 14:01:39;;;;;;;;;4.00;4.00;;;;;36.15;26.47;101222.25;4880484;29;45519;-89
2023/07/08 14:04:05;;;;;;;;;3.67;3.33;;;;;36.10;26.94;101206.63;4885760;29;45430;-89
2023/07/08 14:06:38;;;;;;;;;4.33;4.33;;;;;36.14;27.05;101191.59;4881577;29;46889;-88
2023/07/08 14:09:23;;;;;;;;;3.67;3.67;;;;;36.19;26.58;101196.41;4879661;29;45296;-89
2023/07/08 14:11:51;;;;;;;;;3.00;3.00;;;;;36.24;26.55;101205.50;4872200;29;45598;-88
2023/07/08 14:14:17;;;;;;;;;6.00;4.00;;;;;36.30;26.33;101203.00;4881760;29;45396;-89
2023/07/08 14:16:50;;;;;;;;;3.00;3.00;;;;;36.33;26.27;101192.56;4880883;29;46491;-89
2023/07/08 14:19:24;;;;;;;;;5.33;3.67;;;;;36.36;25.39;101188.56;4882589;29;45392;-89
2023/07/08 14:21:54;;;;;;;;;3.00;3.00;;;;;36.40;25.56;101191.69;4879814;29;45630;-88
2023/07/08 14:24:19;;;;;;;;;4.67;2.00;;;;;36.44;25.70;101192.91;4877016;29;45473;-88
2023/07/08 14:26:45;;;;;;;;;4.00;4.00;;;;;36.48;25.61;101202.28;4880797;29;46621;-88
2023/07/08 14:29:12;;;;;;;;;4.33;3.33;;;;;36.52;25.91;101200.78;4880949;29;45531;-89
2023/07/08 14:31:38;;;;;;;;;4.00;4.00;;;;;36.51;25.74;101202.66;4879719;29;45360;-88
2023/07/08 14:34:24;;;;;;;;;6.00;4.00;;;;;36.55;26.11;101194.91;4880428;29;45515;-88
2023/07/08 14:36:49;;;;;;;;;4.00;3.00;;;;;36.53;25.50;101197.03;4880420;29;47167;-88
2023/07/08 14:39:17;;;;;;;;;4.67;4.67;;;;;36.52;26.09;101200.78;4876944;29;46042;-88
2023/07/08 14:41:44;;;;;;;;;5.00;5.00;;;;;36.54;25.92;101201.41;4865401;29;46173;-88
2023/07/08 14:44:36;;;;;;;;;5.33;4.67;;;;;36.55;25.65;101202.25;4878633;29;45392;-89
2023/07/08 14:47:01;;;;;;;;;3.00;3.00;;;;;36.58;25.42;101204.50;4868659;29;47314;-89
2023/07/08 14:49:28;;;;;;;;;5.00;4.00;;;;;36.62;25.67;101203.03;4879348;29;45368;-88
2023/07/08 14:51:53;;;;;;;;;4.67;4.67;;;;;36.60;25.55;101188.88;4880342;29;45351;-87
2023/07/08 14:54:20;;;;;;;;;5.00;4.00;;;;;36.55;25.26;101191.41;4879148;29;45573;-88
2023/07/08 14:56:47;;;;;;;;;4.33;4.00;;;;;36.48;25.20;101192.28;4878821;29;46976;-88
2023/07/08 14:59:17;;;;;;;;;4.67;3.67;;;;;36.51;25.37;101186.41;4878514;29;45376;-88
2023/07/08 15:01:44;;;;;;;;;3.33;3.33;;;;;36.57;24.96;101189.28;4879456;29;45526;-88
2023/07/08 15:04:13;;;;;;;;;7.00;4.00;;;;;36.58;25.00;101170.09;4875454;29;45368;-88
2023/07/08 15:06:40;;;;;;;;;3.00;3.00;;;;;36.63;25.29;101172.19;4877954;29;46489;-88
2023/07/08 15:09:06;;;;;;;;;4.00;3.67;;;;;36.65;25.34;101170.09;4879638;29;45512;-89
2023/07/08 15:11:32;;;;;;;;;4.00;4.00;;;;;36.71;25.73;101176.50;4879300;29;45320;-88
2023/07/08 15:13:58;;;;;;;;;5.25;4.00;;;;;36.71;24.86;101168.38;4881238;29;45610;-88
2023/07/08 15:16:24;;;;;;;;;4.00;4.00;;;;;36.64;25.07;101171.97;4882156;29;45907;-88
2023/07/08 15:18:49;;;;;;;;;3.67;3.67;;;;;36.60;24.80;101172.59;4878008;29;45533;-88
2023/07/08 15:21:15;;;;;;;;;2.00;2.00;;;;;36.52;24.92;101176.41;4879264;29;45499;-88
2023/07/08 15:23:42;;;;;;;;;5.00;3.50;;;;;36.43;24.89;101166.88;4878570;29;45344;-88
2023/07/08 15:31:39;;;;;;;;;3.00;3.00;;;;;36.08;24.73;101131.00;5227624;23;45384;-85
2023/07/08 17:05:53;;;;;;;;;2.67;2.33;;;;;34.68;26.89;101139.19;4954058;23;46638;-93
2023/07/08 17:08:19;;;;;;;;;6.00;6.00;;;;;34.66;27.58;101141.25;4919309;28;45557;-92
2023/07/08 17:10:45;;;;;;;;;5.00;4.00;;;;;34.64;27.14;101149.59;4913031;28;45725;-93
2023/07/08 17:13:11;;;;;;;;;4.33;4.33;;;;;34.61;26.86;101150.00;4934273;28;46280;-92
2023/07/08 17:15:38;;;;;;;;;4.25;4.25;;;;;34.57;26.86;101154.09;4935076;28;45977;-93
2023/07/08 17:18:04;;;;;;;;;2.33;2.33;;;;;34.54;26.61;101154.53;4910815;28;45461;-93
2023/07/08 17:20:35;;;;;;;;;2.67;2.67;;;;;34.51;27.58;101158.47;4941019;28;45454;-92
2023/07/08 17:23:10;;;;;;;;;5.00;5.00;;;;;34.49;27.02;101155.16;4940776;28;45355;-93
2023/07/08 17:25:36;;;;;;;;;4.67;4.00;;;;;34.45;27.60;101159.28;4923523;28;45773;-93
2023/07/08 17:28:01;;;;;;;;;3.75;3.75;;;;;34.39;27.36;101150.13;4904817;28;45711;-93
2023/07/08 17:30:27;;;;;;;;;4.00;4.00;;;;;34.39;27.57;101160.94;4920865;28;45349;-93
2023/07/08 17:32:54;;;;;;;;;4.00;4.00;;;;;34.42;27.75;101161.59;4904327;28;46194;-93
2023/07/08 17:35:21;;;;;;;;;6.33;5.00;;;;;34.43;27.36;101157.84;4920866;28;45810;-93
2023/07/08 17:37:47;;;;;;;;;5.33;5.33;;;;;34.42;27.55;101165.09;4908280;28;45492;-93
2023/07/08 17:40:22;;;;;;;;;3.67;3.67;;;;;34.43;27.60;101168.63;4923214;28;45426;-94
2023/07/08 17:42:48;;;;;;;;;4.33;4.33;;;;;34.40;27.54;101167.19;4939295;28;45723;-93
2023/07/08 17:45:18;;;;;;;;;5.33;5.33;;;;;34.38;27.77;101164.69;4926973;28;45323;-93
2023/07/08 17:47:47;;;;;;;;;3.33;3.33;;;;;34.33;27.68;101177.16;4917834;28;45302;-93
2023/07/08 17:50:31;;;;;;;;;3.33;3.33;;;;;34.28;27.82;101172.34;4909086;28;45460;-93
2023/07/08 17:52:56;;;;;;;;;6.00;5.00;;;;;34.28;28.06;101174.22;4928698;28;46662;-94
2023/07/08 17:55:27;;;;;;;;;4.67;4.00;;;;;34.29;27.90;101182.09;4920333;28;45361;-94
2023/07/08 17:57:55;;;;;;;;;5.67;5.00;;;;;34.27;27.81;101181.47;4923056;28;45374;-94
2023/07/08 18:00:23;;;;;;;;;7.00;5.00;;;;;34.21;27.93;101179.59;4939731;28;45686;-96
2023/07/08 18:02:50;;;;;;;;;8.50;8.50;;;;;34.18;27.83;101183.53;4945199;28;45711;-95
2023/07/08 18:05:24;;;;;;;;;5.50;5.50;;;;;34.15;27.82;101178.53;4932849;28;45285;-94
2023/07/08 18:07:51;;;;;;;;;6.67;6.67;;;;;34.14;27.89;101190.34;4931994;28;45250;-95
2023/07/08 18:10:19;;;;;;;;;8.75;8.75;;;;;34.12;28.34;101187.84;4896807;28;45001;-96
2023/07/08 18:12:46;;;;;;;;;7.75;6.25;;;;;34.08;28.05;101189.31;4939493;28;45927;-95
2023/07/08 18:15:23;;;;;;;;;9.00;6.75;;;;;34.07;28.08;101192.19;4911574;28;45485;-95
2023/07/08 18:17:53;;;;;;;;;5.25;5.25;;;;;34.03;28.28;101186.34;4904744;28;45487;-94
2023/07/08 18:20:19;;;;;;;;;5.67;5.67;;;;;34.02;27.93;101187.38;4920827;28;45398;-95
2023/07/08 18:22:49;;;;;;;;;6.00;6.00;;;;;33.97;28.12;101192.56;4922987;28;48217;-96
2023/07/08 18:25:20;;;;;;;;;7.00;7.00;;;;;33.95;28.38;101197.31;4923447;28;45336;-95
2023/07/08 18:27:46;;;;;;;;;7.33;7.33;;;;;33.89;28.20;101193.56;4926342;28;45409;-96
2023/07/08 18:30:14;;;;;;;;;5.67;5.00;;;;;33.85;28.25;101192.28;4920670;28;45306;-95
2023/07/08 18:32:40;;;;;;;;;9.00;7.75;;;;;33.78;28.34;101200.34;4905872;28;46716;-96
2023/07/08 18:35:28;;;;;;;;;6.67;6.67;;;;;33.74;28.65;101200.94;4919849;28;45613;-95
2023/07/08 18:37:54;;;;;;;;;11.50;8.75;;;;;33.70;28.81;101211.31;4909146;28;45493;-95
2023/07/08 18:40:27;;;;;;;;;9.33;7.67;;;;;33.62;28.68;101209.59;4938161;28;45596;-96
2023/07/08 18:43:02;;;;;;;;;6.00;6.00;;;;;33.56;28.97;101205.00;4939097;28;45784;-95
2023/07/08 18:45:27;;;;;;;;;5.67;5.67;;;;;33.50;28.75;101213.84;4925208;28;45480;-96
2023/07/08 18:47:53;;;;;;;;;4.67;4.67;;;;;33.42;28.88;101210.25;4910714;28;45785;-95
2023/07/08 18:50:19;;;;;;;;;5.00;5.00;;;;;33.35;28.81;101213.94;4932261;28;45469;-95
2023/07/08 18:52:45;;;;;;;;;7.00;7.00;;;;;33.29;28.24;101216.41;4914652;28;48589;-96
2023/07/08 18:55:20;;;;;;;;;7.00;7.00;;;;;33.24;29.12;101209.91;4914410;28;45517;-95
2023/07/08 18:57:46;;;;;;;;;6.00;6.00;;;;;33.17;29.27;101210.69;4921832;28;45516;-96
2023/07/08 19:00:14;;;;;;;;;7.50;7.50;;;;;33.12;29.32;101209.59;4920805;28;45513;-95
2023/07/08 19:02:51;;;;;;;;;10.75;10.25;;;;;33.03;29.45;101204.34;4909190;28;48266;-95
2023/07/08 19:05:18;;;;;;;;;8.00;7.00;;;;;33.00;29.61;101215.50;4910799;28;45308;-95
2023/07/08 19:07:44;;;;;;;;;10.50;10.50;;;;;32.96;29.24;101208.84;4931825;28;45419;-95
2023/07/08 19:10:11;;;;;;;;;12.67;11.33;;;;;32.92;29.51;101210.22;4915818;28;45441;-96
2023/07/08 19:12:37;;;;;;;;;12.67;12.67;;;;;32.85;29.83;101212.84;4916675;28;47356;-95
2023/07/08 19:15:03;;;;;;;;;9.50;9.25;;;;;32.78;29.77;101212.78;4908470;28;45484;-96
2023/07/08 19:17:30;;;;;;;;;10.50;10.50;;;;;32.76;29.67;101214.03;4912137;28;45310;-95
2023/07/08 19:19:55;;;;;;;;;13.67;13.00;;;;;32.72;29.93;101212.75;4917764;28;45616;-95
2023/07/08 19:22:21;;;;;;;;;11.33;10.67;;;;;32.70;29.93;101214.78;4920120;28;47565;-95
2023/07/08 19:24:50;;;;;;;;;13.33;12.00;;;;;32.63;30.26;101214.72;4913135;28;45359;-95
2023/07/08 19:27:18;;;;;;;;;13.00;12.33;;;;;32.59;30.21;101214.28;4909153;28;45504;-94
2023/07/08 19:29:44;;;;;;;;;11.00;11.00;;;;;32.56;30.05;101211.09;4914997;28;45538;-96
2023/07/08 19:32:16;;;;;;;;;11.67;11.33;;;;;32.52;30.03;101210.66;4908951;28;47387;-94
2023/07/08 19:34:42;;;;;;;;;13.25;13.25;;;;;32.48;30.54;101215.59;4920319;28;46018;-95
2023/07/08 19:37:18;;;;;;;;;14.67;13.00;;;;;32.43;30.40;101212.63;4913846;28;45547;-95
2023/07/08 19:39:44;;;;;;;;;16.00;14.50;;;;;32.39;30.53;101216.69;4930813;28;45726;-95
2023/07/08 19:42:23;;;;;;;;;11.00;11.00;;;;;32.33;30.71;101225.53;4922702;28;47513;-95
2023/07/08 19:44:48;;;;;;;;;16.25;15.75;;;;;32.28;30.50;101225.25;4928720;28;45648;-93
2023/07/08 19:47:15;;;;;;;;;23.00;22.50;;;;;32.22;30.91;101227.66;4906903;28;45376;-93
2023/07/08 19:49:41;;;;;;;;;32.50;31.00;;;;;32.17;30.84;101219.34;4909415;28;45511;-93
2023/07/08 19:52:11;;;;;;;;;47.25;40.25;;;;;32.08;31.17;101223.97;4931032;28;45570;-96
2023/07/08 19:54:37;;;;;;;;;73.33;68.67;;;;;32.02;31.38;101226.59;4913624;28;44951;-96
2023/07/08 19:57:12;;;;;;;;;58.50;47.25;;;;;31.96;31.59;101228.16;4921108;28;45194;-96
2023/07/08 19:59:38;;;;;;;;;31.00;29.25;;;;;31.90;31.48;101232.44;4900384;28;45519;-96
2023/07/08 20:02:14;;;;;;;;;34.00;31.25;;;;;31.84;31.63;101236.66;4932447;28;47505;-95
2023/07/08 20:04:39;;;;;;;;;24.75;22.50;;;;;31.79;31.39;101238.25;4866955;28;1253676;-96
2023/07/08 20:07:11;;;;;;;;;26.00;24.25;;;;;31.74;31.61;101238.78;4916477;28;45298;-96
2023/07/08 20:09:37;;;;;;;;;26.50;24.50;;;;;31.67;31.99;101233.34;4918148;28;45320;-95
2023/07/08 20:12:03;;;;;;;;;25.50;24.50;;;;;31.63;31.72;101237.41;4909177;28;46970;-95
2023/07/08 20:14:28;;;;;;;;;34.50;31.50;;;;;31.57;32.08;101238.94;4930458;28;45759;-95
2023/07/08 20:16:53;;;;;;;;;43.75;36.75;;;;;31.50;31.79;101247.94;4910767;28;45747;-96
2023/07/08 20:19:26;;;;;;;;;59.25;47.75;;;;;31.40;32.26;101246.34;4907695;28;45561;-96
2023/07/08 20:21:51;;;;;;;;;58.00;47.00;;;;;31.36;32.51;101250.41;4932837;28;47373;-96
